<?xml version="1.0" encoding="UTF-8" standalone="no" ?>
<gpx xmlns="http://www.topografix.com/GPX/1/1" xmlns:xsi="http://www.w3.org/2001/XMLSchema-instance" xsi:schemaLocation="http://www.topografix.com/GPX/1/1 http://www.topografix.com/GPX/1/1/gpx.xsd" version="1.1" creator="VisuGPX - https://www.visugpx.com">
  <metadata>
    <name>Stgelven_DaoulasBonRepos_16.3km</name>
    <desc><![CDATA[gnerando idor:8152136]]></desc>
  </metadata>
  <trk>
    <name><![CDATA[StGelven_DaoulasBonRepos_16.3km-8152136]]></name>
    <extensions>
      <line xmlns="http://www.topografix.com/GPX/gpx_style/0/2">
        <color>0000FF</color>
        <width>4</width>
      </line>
    </extensions>
    <trkseg>
      <trkpt lat="48.2116" lon="-3.13033">
        <ele>141</ele>
        <time>2023-11-12T17:39:29Z</time>
      </trkpt>
      <trkpt lat="48.2124" lon="-3.13101">
        <ele>139</ele>
        <time>2023-11-12T17:41:32Z</time>
      </trkpt>
      <trkpt lat="48.21292" lon="-3.13234">
        <ele>150</ele>
        <time>2023-11-12T17:43:49Z</time>
      </trkpt>
      <trkpt lat="48.21295" lon="-3.13591">
        <ele>156</ele>
        <time>2023-11-12T17:49:06Z</time>
      </trkpt>
      <trkpt lat="48.21283" lon="-3.13689">
        <ele>158</ele>
        <time>2023-11-12T17:50:35Z</time>
      </trkpt>
      <trkpt lat="48.213" lon="-3.13792">
        <ele>151</ele>
        <time>2023-11-12T17:52:09Z</time>
      </trkpt>
      <trkpt lat="48.21263" lon="-3.1393">
        <ele>157</ele>
        <time>2023-11-12T17:54:22Z</time>
      </trkpt>
      <trkpt lat="48.213" lon="-3.14093">
        <ele>149</ele>
        <time>2023-11-12T17:56:55Z</time>
      </trkpt>
      <trkpt lat="48.21292" lon="-3.14264">
        <ele>148</ele>
        <time>2023-11-12T17:59:27Z</time>
      </trkpt>
      <trkpt lat="48.21255" lon="-3.14492">
        <ele>155</ele>
        <time>2023-11-12T18:02:56Z</time>
      </trkpt>
      <trkpt lat="48.21246" lon="-3.14719">
        <ele>155</ele>
        <time>2023-11-12T18:06:18Z</time>
      </trkpt>
      <trkpt lat="48.21157" lon="-3.14732">
        <ele>164</ele>
        <time>2023-11-12T18:08:17Z</time>
      </trkpt>
      <trkpt lat="48.20728" lon="-3.14634">
        <ele>215</ele>
        <time>2023-11-12T18:17:56Z</time>
      </trkpt>
      <trkpt lat="48.20674" lon="-3.14603">
        <ele>223</ele>
        <time>2023-11-12T18:19:14Z</time>
      </trkpt>
      <trkpt lat="48.20637" lon="-3.14664">
        <ele>226</ele>
        <time>2023-11-12T18:20:27Z</time>
      </trkpt>
      <trkpt lat="48.20508" lon="-3.14299">
        <ele>248</ele>
        <time>2023-11-12T18:26:34Z</time>
      </trkpt>
      <trkpt lat="48.20171" lon="-3.14445">
        <ele>264</ele>
        <time>2023-11-12T18:34:22Z</time>
      </trkpt>
      <trkpt lat="48.19965" lon="-3.14724">
        <ele>261</ele>
        <time>2023-11-12T18:40:33Z</time>
      </trkpt>
      <trkpt lat="48.1983" lon="-3.15097">
        <ele>261</ele>
        <time>2023-11-12T18:46:50Z</time>
      </trkpt>
      <trkpt lat="48.19659" lon="-3.15273">
        <ele>260</ele>
        <time>2023-11-12T18:51:27Z</time>
      </trkpt>
      <trkpt lat="48.1957" lon="-3.15256">
        <ele>264</ele>
        <time>2023-11-12T18:53:27Z</time>
      </trkpt>
      <trkpt lat="48.19384" lon="-3.15015">
        <ele>267</ele>
        <time>2023-11-12T18:58:55Z</time>
      </trkpt>
      <trkpt lat="48.19275" lon="-3.1502">
        <ele>265</ele>
        <time>2023-11-12T19:01:20Z</time>
      </trkpt>
      <trkpt lat="48.19232" lon="-3.14955">
        <ele>268</ele>
        <time>2023-11-12T19:02:42Z</time>
      </trkpt>
      <trkpt lat="48.19132" lon="-3.13689">
        <ele>204</ele>
        <time>2023-11-12T19:21:36Z</time>
      </trkpt>
      <trkpt lat="48.19026" lon="-3.13775">
        <ele>212</ele>
        <time>2023-11-12T19:24:17Z</time>
      </trkpt>
      <trkpt lat="48.18964" lon="-3.1378">
        <ele>215</ele>
        <time>2023-11-12T19:25:40Z</time>
      </trkpt>
      <trkpt lat="48.18883" lon="-3.13835">
        <ele>223</ele>
        <time>2023-11-12T19:27:38Z</time>
      </trkpt>
      <trkpt lat="48.18775" lon="-3.13857">
        <ele>222</ele>
        <time>2023-11-12T19:30:04Z</time>
      </trkpt>
      <trkpt lat="48.18755" lon="-3.1378">
        <ele>215</ele>
        <time>2023-11-12T19:31:17Z</time>
      </trkpt>
      <trkpt lat="48.18697" lon="-3.13719">
        <ele>210</ele>
        <time>2023-11-12T19:32:52Z</time>
      </trkpt>
      <trkpt lat="48.18838" lon="-3.13715">
        <ele>208</ele>
        <time>2023-11-12T19:36:00Z</time>
      </trkpt>
      <trkpt lat="48.18835" lon="-3.13634">
        <ele>206</ele>
        <time>2023-11-12T19:37:12Z</time>
      </trkpt>
      <trkpt lat="48.18878" lon="-3.13586">
        <ele>209</ele>
        <time>2023-11-12T19:38:24Z</time>
      </trkpt>
      <trkpt lat="48.18929" lon="-3.13591">
        <ele>204</ele>
        <time>2023-11-12T19:39:32Z</time>
      </trkpt>
      <trkpt lat="48.19064" lon="-3.13522">
        <ele>193</ele>
        <time>2023-11-12T19:42:42Z</time>
      </trkpt>
      <trkpt lat="48.19158" lon="-3.13466">
        <ele>182</ele>
        <time>2023-11-12T19:44:57Z</time>
      </trkpt>
      <trkpt lat="48.19218" lon="-3.13217">
        <ele>188</ele>
        <time>2023-11-12T19:48:53Z</time>
      </trkpt>
      <trkpt lat="48.19318" lon="-3.13011">
        <ele>182</ele>
        <time>2023-11-12T19:52:39Z</time>
      </trkpt>
      <trkpt lat="48.19424" lon="-3.12891">
        <ele>177</ele>
        <time>2023-11-12T19:55:37Z</time>
      </trkpt>
      <trkpt lat="48.19444" lon="-3.12801">
        <ele>179</ele>
        <time>2023-11-12T19:57:01Z</time>
      </trkpt>
      <trkpt lat="48.19607" lon="-3.12784">
        <ele>176</ele>
        <time>2023-11-12T20:00:39Z</time>
      </trkpt>
      <trkpt lat="48.19673" lon="-3.12728">
        <ele>179</ele>
        <time>2023-11-12T20:02:20Z</time>
      </trkpt>
      <trkpt lat="48.19736" lon="-3.12745">
        <ele>178</ele>
        <time>2023-11-12T20:03:46Z</time>
      </trkpt>
      <trkpt lat="48.19893" lon="-3.12926">
        <ele>175</ele>
        <time>2023-11-12T20:08:10Z</time>
      </trkpt>
      <trkpt lat="48.19882" lon="-3.12651">
        <ele>180</ele>
        <time>2023-11-12T20:12:15Z</time>
      </trkpt>
      <trkpt lat="48.19916" lon="-3.12466">
        <ele>181</ele>
        <time>2023-11-12T20:15:06Z</time>
      </trkpt>
      <trkpt lat="48.19991" lon="-3.1229">
        <ele>171</ele>
        <time>2023-11-12T20:18:11Z</time>
      </trkpt>
      <trkpt lat="48.19939" lon="-3.11904">
        <ele>160</ele>
        <time>2023-11-12T20:24:02Z</time>
      </trkpt>
      <trkpt lat="48.20025" lon="-3.11857">
        <ele>164</ele>
        <time>2023-11-12T20:26:04Z</time>
      </trkpt>
      <trkpt lat="48.20071" lon="-3.11728">
        <ele>173</ele>
        <time>2023-11-12T20:28:14Z</time>
      </trkpt>
      <trkpt lat="48.20079" lon="-3.11509">
        <ele>188</ele>
        <time>2023-11-12T20:31:29Z</time>
      </trkpt>
      <trkpt lat="48.20391" lon="-3.11381">
        <ele>175</ele>
        <time>2023-11-12T20:38:41Z</time>
      </trkpt>
      <trkpt lat="48.20394" lon="-3.1126">
        <ele>170</ele>
        <time>2023-11-12T20:40:28Z</time>
      </trkpt>
      <trkpt lat="48.20457" lon="-3.11196">
        <ele>156</ele>
        <time>2023-11-12T20:42:10Z</time>
      </trkpt>
      <trkpt lat="48.20497" lon="-3.11256">
        <ele>146</ele>
        <time>2023-11-12T20:43:25Z</time>
      </trkpt>
      <trkpt lat="48.20531" lon="-3.11213">
        <ele>142</ele>
        <time>2023-11-12T20:44:25Z</time>
      </trkpt>
      <trkpt lat="48.20505" lon="-3.11089">
        <ele>145</ele>
        <time>2023-11-12T20:46:20Z</time>
      </trkpt>
      <trkpt lat="48.2058" lon="-3.10969">
        <ele>142</ele>
        <time>2023-11-12T20:48:47Z</time>
      </trkpt>
      <trkpt lat="48.20691" lon="-3.10934">
        <ele>134</ele>
        <time>2023-11-12T20:51:18Z</time>
      </trkpt>
      <trkpt lat="48.207" lon="-3.11011">
        <ele>131</ele>
        <time>2023-11-12T20:52:27Z</time>
      </trkpt>
      <trkpt lat="48.20637" lon="-3.11054">
        <ele>134</ele>
        <time>2023-11-12T20:54:00Z</time>
      </trkpt>
      <trkpt lat="48.20591" lon="-3.11102">
        <ele>134</ele>
        <time>2023-11-12T20:55:15Z</time>
      </trkpt>
      <trkpt lat="48.20577" lon="-3.11235">
        <ele>135</ele>
        <time>2023-11-12T20:57:14Z</time>
      </trkpt>
      <trkpt lat="48.20671" lon="-3.11454">
        <ele>136</ele>
        <time>2023-11-12T21:01:06Z</time>
      </trkpt>
      <trkpt lat="48.20797" lon="-3.11561">
        <ele>139</ele>
        <time>2023-11-12T21:04:19Z</time>
      </trkpt>
      <trkpt lat="48.20889" lon="-3.11599">
        <ele>137</ele>
        <time>2023-11-12T21:06:27Z</time>
      </trkpt>
      <trkpt lat="48.20943" lon="-3.11535">
        <ele>150</ele>
        <time>2023-11-12T21:07:58Z</time>
      </trkpt>
      <trkpt lat="48.20989" lon="-3.11557">
        <ele>147</ele>
        <time>2023-11-12T21:09:03Z</time>
      </trkpt>
      <trkpt lat="48.21095" lon="-3.11883">
        <ele>142</ele>
        <time>2023-11-12T21:14:25Z</time>
      </trkpt>
      <trkpt lat="48.2108" lon="-3.12329">
        <ele>133</ele>
        <time>2023-11-12T21:21:02Z</time>
      </trkpt>
      <trkpt lat="48.21052" lon="-3.12685">
        <ele>134</ele>
        <time>2023-11-12T21:26:21Z</time>
      </trkpt>
      <trkpt lat="48.21112" lon="-3.12835">
        <ele>130</ele>
        <time>2023-11-12T21:28:57Z</time>
      </trkpt>
      <trkpt lat="48.21212" lon="-3.12908">
        <ele>127</ele>
        <time>2023-11-12T21:31:25Z</time>
      </trkpt>
      <trkpt lat="48.21352" lon="-3.1278">
        <ele>129</ele>
        <time>2023-11-12T21:35:04Z</time>
      </trkpt>
      <trkpt lat="48.21495" lon="-3.12762">
        <ele>131</ele>
        <time>2023-11-12T21:38:15Z</time>
      </trkpt>
      <trkpt lat="48.21592" lon="-3.12792">
        <ele>138</ele>
        <time>2023-11-12T21:40:28Z</time>
      </trkpt>
      <trkpt lat="48.21618" lon="-3.12861">
        <ele>146</ele>
        <time>2023-11-12T21:41:38Z</time>
      </trkpt>
      <trkpt lat="48.21835" lon="-3.1238">
        <ele>152</ele>
        <time>2023-11-12T21:50:15Z</time>
      </trkpt>
      <trkpt lat="48.21889" lon="-3.12458">
        <ele>174</ele>
        <time>2023-11-12T21:51:55Z</time>
      </trkpt>
      <trkpt lat="48.21981" lon="-3.12471">
        <ele>188</ele>
        <time>2023-11-12T21:53:58Z</time>
      </trkpt>
      <trkpt lat="48.22104" lon="-3.12346">
        <ele>172</ele>
        <time>2023-11-12T21:57:16Z</time>
      </trkpt>
      <trkpt lat="48.22275" lon="-3.12059">
        <ele>170</ele>
        <time>2023-11-12T22:02:59Z</time>
      </trkpt>
      <trkpt lat="48.22173" lon="-3.11805">
        <ele>164</ele>
        <time>2023-11-12T22:07:22Z</time>
      </trkpt>
      <trkpt lat="48.22161" lon="-3.11574">
        <ele>166</ele>
        <time>2023-11-12T22:10:48Z</time>
      </trkpt>
      <trkpt lat="48.22264" lon="-3.11475">
        <ele>184</ele>
        <time>2023-11-12T22:13:31Z</time>
      </trkpt>
      <trkpt lat="48.22261" lon="-3.11561">
        <ele>193</ele>
        <time>2023-11-12T22:14:48Z</time>
      </trkpt>
      <trkpt lat="48.22287" lon="-3.11625">
        <ele>204</ele>
        <time>2023-11-12T22:15:55Z</time>
      </trkpt>
      <trkpt lat="48.22281" lon="-3.11677">
        <ele>207</ele>
        <time>2023-11-12T22:16:42Z</time>
      </trkpt>
      <trkpt lat="48.22316" lon="-3.11737">
        <ele>215</ele>
        <time>2023-11-12T22:17:52Z</time>
      </trkpt>
      <trkpt lat="48.22324" lon="-3.1181">
        <ele>210</ele>
        <time>2023-11-12T22:18:58Z</time>
      </trkpt>
      <trkpt lat="48.22387" lon="-3.11865">
        <ele>214</ele>
        <time>2023-11-12T22:20:35Z</time>
      </trkpt>
      <trkpt lat="48.22398" lon="-3.11943">
        <ele>215</ele>
        <time>2023-11-12T22:21:46Z</time>
      </trkpt>
      <trkpt lat="48.22424" lon="-3.12003">
        <ele>221</ele>
        <time>2023-11-12T22:22:50Z</time>
      </trkpt>
      <trkpt lat="48.22424" lon="-3.12235">
        <ele>231</ele>
        <time>2023-11-12T22:26:16Z</time>
      </trkpt>
      <trkpt lat="48.22361" lon="-3.12419">
        <ele>241</ele>
        <time>2023-11-12T22:29:20Z</time>
      </trkpt>
      <trkpt lat="48.22338" lon="-3.12479">
        <ele>245</ele>
        <time>2023-11-12T22:30:22Z</time>
      </trkpt>
      <trkpt lat="48.2235" lon="-3.12531">
        <ele>246</ele>
        <time>2023-11-12T22:31:11Z</time>
      </trkpt>
      <trkpt lat="48.22201" lon="-3.12672">
        <ele>236</ele>
        <time>2023-11-12T22:35:06Z</time>
      </trkpt>
      <trkpt lat="48.22144" lon="-3.12668">
        <ele>233</ele>
        <time>2023-11-12T22:36:22Z</time>
      </trkpt>
      <trkpt lat="48.22035" lon="-3.12556">
        <ele>214</ele>
        <time>2023-11-12T22:39:18Z</time>
      </trkpt>
      <trkpt lat="48.2193" lon="-3.12522">
        <ele>195</ele>
        <time>2023-11-12T22:41:41Z</time>
      </trkpt>
      <trkpt lat="48.21878" lon="-3.12509">
        <ele>182</ele>
        <time>2023-11-12T22:42:52Z</time>
      </trkpt>
      <trkpt lat="48.21872" lon="-3.12677">
        <ele>194</ele>
        <time>2023-11-12T22:45:21Z</time>
      </trkpt>
      <trkpt lat="48.21721" lon="-3.12956">
        <ele>177</ele>
        <time>2023-11-12T22:50:41Z</time>
      </trkpt>
      <trkpt lat="48.21626" lon="-3.1299">
        <ele>158</ele>
        <time>2023-11-12T22:52:51Z</time>
      </trkpt>
      <trkpt lat="48.21584" lon="-3.1284">
        <ele>140</ele>
        <time>2023-11-12T22:55:16Z</time>
      </trkpt>
      <trkpt lat="48.21458" lon="-3.1275">
        <ele>130</ele>
        <time>2023-11-12T22:58:22Z</time>
      </trkpt>
      <trkpt lat="48.21318" lon="-3.1281">
        <ele>129</ele>
        <time>2023-11-12T23:01:37Z</time>
      </trkpt>
      <trkpt lat="48.21163" lon="-3.13046">
        <ele>143</ele>
        <time>2023-11-12T23:06:31Z</time>
      </trkpt>
    </trkseg>
  </trk>
</gpx>